createdAt,value
2022-08-07T00:02:36.755Z,1.80
2022-08-07T00:04:58.661Z,1.70
2022-08-07T00:07:27.379Z,1.73
2022-08-07T00:10:19.187Z,1.90
2022-08-07T00:12:57.601Z,1.67
2022-08-07T00:15:25.820Z,1.50
2022-08-07T00:18:05.293Z,1.35
2022-08-07T00:20:34.355Z,1.67
2022-08-07T00:23:02.808Z,1.90
2022-08-07T00:25:37.527Z,1.70
2022-08-07T00:28:08.805Z,1.70
2022-08-07T00:30:37.517Z,1.80
2022-08-07T00:33:04.882Z,1.95
2022-08-07T00:35:35.281Z,1.95
2022-08-07T00:38:04.242Z,2.03
2022-08-07T00:40:36.463Z,1.70
2022-08-07T00:44:01.580Z,1.70
2022-08-07T00:46:01.741Z,1.65
2022-08-07T00:48:31.801Z,1.98
2022-08-07T00:51:00.355Z,1.90
2022-08-07T00:53:27.697Z,1.75
2022-08-07T00:56:13.750Z,1.88
2022-08-07T00:58:46.900Z,1.95
2022-08-07T01:01:17.548Z,2.17
2022-08-07T01:03:55.954Z,1.80
2022-08-07T01:06:28.407Z,2.00
2022-08-07T01:08:58.710Z,1.83
2022-08-07T01:12:08.889Z,1.80
2022-08-07T01:14:16.924Z,1.65
2022-08-07T01:16:46.976Z,1.80
2022-08-07T01:19:18.188Z,1.67
2022-08-07T01:21:47.136Z,1.60
2022-08-07T01:24:14.613Z,1.60
2022-08-07T01:26:52.256Z,1.60
2022-08-07T01:29:20.467Z,1.60
2022-08-07T01:31:49.324Z,1.63
2022-08-07T01:34:18.647Z,1.50
2022-08-07T01:36:52.938Z,1.80
2022-08-07T01:39:26.951Z,1.70
2022-08-07T01:42:38.517Z,1.77
2022-08-07T01:44:55.428Z,1.83
2022-08-07T01:48:20.014Z,1.70
2022-08-07T01:50:09.629Z,1.85
2022-08-07T01:52:49.298Z,1.67
2022-08-07T01:55:22.401Z,1.77
2022-08-07T01:58:06.112Z,1.80
2022-08-07T02:00:45.431Z,1.80
2022-08-07T02:03:26.282Z,1.65
2022-08-07T02:06:02.167Z,1.70
2022-08-07T02:08:41.735Z,1.70
2022-08-07T02:11:11.020Z,1.85
2022-08-07T02:14:02.378Z,1.77
2022-08-07T02:16:33.312Z,1.75
2022-08-07T02:19:05.753Z,1.80
2022-08-07T02:21:55.264Z,1.67
2022-08-07T02:24:24.691Z,1.73
2022-08-07T02:26:52.450Z,1.85
2022-08-07T02:29:21.867Z,1.70
2022-08-07T02:31:49.945Z,1.90
2022-08-07T02:34:18.955Z,1.80
2022-08-07T02:36:45.971Z,1.70
2022-08-07T02:39:17.215Z,1.60
2022-08-07T02:42:03.001Z,1.80
2022-08-07T02:44:37.281Z,1.75
2022-08-07T02:47:29.305Z,1.90
2022-08-07T02:49:59.938Z,1.70
2022-08-07T02:53:06.118Z,1.73
2022-08-07T02:56:03.891Z,1.60
2022-08-07T02:58:27.217Z,1.70
2022-08-07T03:00:57.379Z,1.80
2022-08-07T03:03:26.668Z,1.80
2022-08-07T03:06:16.348Z,1.90
2022-08-07T03:08:44.061Z,1.70
2022-08-07T03:11:11.071Z,1.80
2022-08-07T03:13:39.288Z,1.80
2022-08-07T03:16:17.329Z,1.90
2022-08-07T03:18:46.489Z,1.80
2022-08-07T03:21:18.859Z,1.70
2022-08-07T03:24:19.871Z,2.03
2022-08-07T03:26:35.338Z,1.90
2022-08-07T03:29:14.851Z,1.90
2022-08-07T03:31:43.889Z,1.80
2022-08-07T03:34:18.556Z,1.88
2022-08-07T03:36:50.682Z,1.90
2022-08-07T03:39:59.005Z,1.98
2022-08-07T03:42:06.293Z,1.95
2022-08-07T03:44:35.722Z,1.80
2022-08-07T03:47:10.837Z,2.10
2022-08-07T03:49:39.413Z,1.90
2022-08-07T03:52:22.343Z,1.90
2022-08-07T03:54:54.339Z,1.90
2022-08-07T03:58:35.449Z,1.60
2022-08-07T04:00:11.531Z,2.00
2022-08-07T04:02:42.473Z,2.08
2022-08-07T04:05:14.559Z,1.95
2022-08-07T04:07:48.792Z,1.85
2022-08-07T04:10:19.036Z,2.00
2022-08-07T04:12:48.752Z,1.92
2022-08-07T04:15:17.401Z,1.70
2022-08-07T04:18:57.402Z,2.03
2022-08-07T04:20:32.248Z,2.10
2022-08-07T04:23:06.195Z,2.00
2022-08-07T04:25:39.332Z,1.90
2022-08-07T04:28:08.749Z,2.00
2022-08-07T04:30:55.517Z,2.00
2022-08-07T04:33:24.270Z,1.70
2022-08-07T04:35:53.897Z,1.90
2022-08-07T04:38:21.820Z,1.85
2022-08-07T04:40:52.503Z,1.70
2022-08-07T04:44:10.045Z,1.80
2022-08-07T04:46:34.649Z,1.67
2022-08-07T04:49:57.404Z,1.80
2022-08-07T04:52:51.840Z,2.00
2022-08-07T04:58:07.494Z,1.50
2022-08-07T04:58:29.729Z,1.70
2022-08-07T05:01:30.752Z,1.73
2022-08-07T05:04:22.128Z,2.03
2022-08-07T05:07:19.576Z,2.00
2022-08-07T05:10:13.792Z,1.55
2022-08-07T05:12:52.826Z,1.70
2022-08-07T05:15:26.274Z,2.00
2022-08-07T05:18:10.378Z,2.03
2022-08-07T05:20:43.695Z,1.77
2022-08-07T05:23:16.480Z,1.90
2022-08-07T05:26:11.801Z,1.70
2022-08-07T05:28:34.812Z,2.00
2022-08-07T05:31:03.696Z,1.80
2022-08-07T05:33:35.655Z,1.90
2022-08-07T05:36:07.005Z,1.90
2022-08-07T05:39:00.226Z,1.60
2022-08-07T05:42:00.457Z,1.50
2022-08-07T05:44:22.213Z,1.80
2022-08-07T05:46:58.050Z,2.13
2022-08-07T05:49:27.450Z,1.88
2022-08-07T05:52:08.386Z,2.22
2022-08-07T05:54:53.195Z,1.80
2022-08-07T05:57:26.701Z,1.83
2022-08-07T05:59:58.782Z,2.03
2022-08-07T06:02:30.810Z,1.98
2022-08-07T06:05:03.588Z,2.10
2022-08-07T06:08:29.498Z,2.10
2022-08-07T06:10:18.624Z,2.60
2022-08-07T06:12:46.098Z,2.38
2022-08-07T06:15:16.065Z,2.70
2022-08-07T06:17:53.684Z,3.03
2022-08-07T06:20:49.314Z,2.67
2022-08-07T06:23:46.099Z,2.83
2022-08-07T06:25:59.828Z,2.90
2022-08-07T06:28:28.575Z,3.70
2022-08-07T06:30:56.343Z,3.72
2022-08-07T06:33:25.484Z,3.63
2022-08-07T06:36:13.487Z,3.30
2022-08-07T06:38:58.635Z,3.55
2022-08-07T06:42:00.358Z,3.80
2022-08-07T06:44:31.159Z,3.75
2022-08-07T06:47:12.181Z,3.70
2022-08-07T06:49:52.377Z,3.53
2022-08-07T06:52:31.917Z,3.50
2022-08-07T06:55:34.391Z,3.55
2022-08-07T06:57:57.232Z,3.72
2022-08-07T07:00:27.566Z,3.28
2022-08-07T07:02:57.991Z,3.45
2022-08-07T07:06:02.815Z,3.60
2022-08-07T07:08:18.475Z,3.65
2022-08-07T07:10:56.396Z,3.25
2022-08-07T07:13:55.365Z,3.58
2022-08-07T07:16:27.202Z,3.22
2022-08-07T07:19:04.055Z,3.13
2022-08-07T07:22:12.160Z,3.30
2022-08-07T07:24:28.758Z,2.83
2022-08-07T07:27:01.401Z,3.38
2022-08-07T07:29:56.761Z,3.10
2022-08-07T07:32:24.864Z,3.20
2022-08-07T07:34:57.988Z,2.95
2022-08-07T07:37:44.344Z,2.72
2022-08-07T07:40:18.637Z,2.67
2022-08-07T07:42:51.265Z,2.67
2022-08-07T07:46:53.503Z,2.53
2022-08-07T07:48:34.827Z,2.53
2022-08-07T07:51:07.810Z,2.35
2022-08-07T07:53:50.355Z,2.38
2022-08-07T07:56:30.079Z,3.08
2022-08-07T07:59:00.345Z,2.90
2022-08-07T08:02:02.047Z,2.63
2022-08-07T08:04:18.571Z,2.25
2022-08-07T08:06:50.909Z,2.40
2022-08-07T08:09:22.798Z,2.50
2022-08-07T08:12:02.907Z,2.58
2022-08-07T08:14:36.336Z,2.72
2022-08-07T08:17:56.033Z,2.80
2022-08-07T08:23:03.263Z,2.70
2022-08-07T08:25:52.323Z,2.70
2022-08-07T08:28:38.490Z,2.75
2022-08-07T08:31:16.280Z,2.47
2022-08-07T08:33:55.520Z,2.50
2022-08-07T08:36:29.823Z,2.40
2022-08-07T08:39:01.938Z,2.72
2022-08-07T08:41:57.091Z,2.70
2022-08-07T08:44:44.642Z,2.40
2022-08-07T08:47:22.125Z,2.40
2022-08-07T08:50:18.977Z,2.50
2022-08-07T08:53:26.453Z,2.30
2022-08-07T08:56:08.379Z,2.50
2022-08-07T08:58:37.894Z,2.20
2022-08-07T09:01:19.651Z,2.20
2022-08-07T09:04:15.718Z,2.35
2022-08-07T09:06:48.004Z,2.40
2022-08-07T09:09:56.981Z,2.17
2022-08-07T09:12:31.596Z,2.15
2022-08-07T09:16:20.151Z,1.98
2022-08-07T09:18:22.835Z,2.38
2022-08-07T09:21:33.766Z,2.35
2022-08-07T09:24:58.724Z,2.35
2022-08-07T09:27:30.327Z,2.20
2022-08-07T09:30:08.769Z,2.53
2022-08-07T09:32:56.901Z,2.30
2022-08-07T09:36:05.339Z,2.35
2022-08-07T09:38:53.881Z,2.10
2022-08-07T09:41:58.412Z,2.17
2022-08-07T09:47:51.763Z,2.40
2022-08-07T09:48:50.287Z,2.20
2022-08-07T09:52:15.876Z,2.10
2022-08-07T09:54:41.162Z,2.40
2022-08-07T09:57:24.028Z,2.10
2022-08-07T10:00:14.411Z,2.25
2022-08-07T10:04:06.578Z,1.98
2022-08-07T10:06:01.260Z,1.85
2022-08-07T10:08:49.531Z,2.00
2022-08-07T10:12:01.459Z,1.90
2022-08-07T10:14:55.198Z,1.67
2022-08-07T10:18:06.324Z,1.98
2022-08-07T10:21:20.041Z,2.00
2022-08-07T10:24:21.379Z,1.70
2022-08-07T10:27:10.413Z,2.10
2022-08-07T10:30:13.346Z,1.90
2022-08-07T10:32:59.818Z,1.95
2022-08-07T10:35:55.593Z,1.75
2022-08-07T10:38:35.963Z,1.85
2022-08-07T10:41:47.226Z,1.90
2022-08-07T10:44:38.210Z,1.70
2022-08-07T10:47:11.700Z,1.40
2022-08-07T10:49:49.326Z,1.80
2022-08-07T10:52:53.224Z,1.70
2022-08-07T10:55:50.435Z,1.77
2022-08-07T10:58:59.959Z,1.60
2022-08-07T11:01:51.030Z,1.85
2022-08-07T11:04:34.818Z,1.60
2022-08-07T11:07:15.214Z,2.13
2022-08-07T11:10:07.096Z,1.60
2022-08-07T11:12:43.277Z,1.77
2022-08-07T11:15:31.390Z,1.65
2022-08-07T11:18:29.319Z,1.70
2022-08-07T11:21:14.080Z,1.73
2022-08-07T11:24:05.678Z,1.70
2022-08-07T11:26:53.818Z,1.60
2022-08-07T11:29:42.630Z,2.00
2022-08-07T11:32:47.708Z,2.00
2022-08-07T11:35:27.023Z,1.98
2022-08-07T11:37:57.837Z,1.50
2022-08-07T11:41:02.123Z,1.80
2022-08-07T11:44:10.870Z,1.77
2022-08-07T11:46:58.302Z,1.65
2022-08-07T11:50:11.272Z,1.60
2022-08-07T11:52:38.105Z,1.70
2022-08-07T11:56:10.056Z,1.70
2022-08-07T11:58:35.870Z,1.75
2022-08-07T12:01:05.264Z,1.60
2022-08-07T12:04:25.214Z,1.70
2022-08-07T12:07:14.014Z,1.75
2022-08-07T12:09:57.038Z,1.80
2022-08-07T12:12:35.393Z,1.80
2022-08-07T12:15:16.968Z,1.90
2022-08-07T12:18:08.218Z,1.77
2022-08-07T12:20:56.069Z,1.77
2022-08-07T12:24:05.940Z,1.90
2022-08-07T12:26:59.038Z,1.77
2022-08-07T12:29:40.411Z,1.77
2022-08-07T12:32:22.411Z,1.80
2022-08-07T12:34:53.432Z,1.85
2022-08-07T12:37:27.981Z,2.10
2022-08-07T12:40:36.127Z,1.98
2022-08-07T12:43:10.184Z,2.00
2022-08-07T12:45:55.224Z,1.73
2022-08-07T12:48:41.667Z,1.90
2022-08-07T12:51:24.060Z,1.98
2022-08-07T12:54:38.460Z,2.10
2022-08-07T12:57:10.256Z,2.15
2022-08-07T12:59:54.354Z,2.47
2022-08-07T13:02:49.900Z,2.50
2022-08-07T13:06:03.453Z,2.25
2022-08-07T13:08:51.529Z,2.40
2022-08-07T13:11:30.791Z,2.22
2022-08-07T13:14:38.542Z,2.90
2022-08-07T13:17:23.687Z,2.97
2022-08-07T13:20:19.011Z,2.80
2022-08-07T13:22:56.298Z,2.80
2022-08-07T13:26:00.911Z,2.70
2022-08-07T13:28:58.475Z,2.88
2022-08-07T13:32:23.643Z,2.90
2022-08-07T13:34:56.384Z,2.72
2022-08-07T13:37:32.101Z,3.20
2022-08-07T13:40:35.760Z,3.00
2022-08-07T13:43:12.944Z,2.95
2022-08-07T13:46:11.455Z,3.22
2022-08-07T13:48:34.554Z,2.95
2022-08-07T13:51:20.418Z,2.50
2022-08-07T13:54:04.924Z,2.95
2022-08-07T13:56:40.907Z,2.92
2022-08-07T13:59:24.448Z,2.60
2022-08-07T14:02:04.000Z,2.75
2022-08-07T14:04:35.560Z,2.42
2022-08-07T14:07:09.184Z,2.20
2022-08-07T14:10:02.987Z,2.40
2022-08-07T14:12:41.384Z,2.30
2022-08-07T14:15:19.094Z,2.28
2022-08-07T14:18:23.521Z,2.00
2022-08-07T14:20:49.088Z,2.10
2022-08-07T14:23:31.346Z,2.00
2022-08-07T14:26:28.358Z,2.35
2022-08-07T14:29:08.517Z,2.47
2022-08-07T14:31:56.597Z,2.40
2022-08-07T14:34:29.860Z,2.10
2022-08-07T14:37:02.981Z,1.98
2022-08-07T14:40:16.210Z,2.10
2022-08-07T14:42:26.253Z,1.98
2022-08-07T14:44:59.968Z,2.13
2022-08-07T14:47:45.589Z,1.92
2022-08-07T14:50:19.109Z,1.92
2022-08-07T14:52:47.938Z,1.88
2022-08-07T14:55:18.118Z,1.90
2022-08-07T14:57:58.200Z,1.80
2022-08-07T15:00:31.433Z,1.70
2022-08-07T15:03:19.382Z,2.20
2022-08-07T15:05:54.323Z,1.88
2022-08-07T15:08:34.814Z,1.92
2022-08-07T15:11:15.531Z,1.60
2022-08-07T15:14:10.746Z,1.95
2022-08-07T15:16:54.861Z,1.75
2022-08-07T15:20:31.560Z,1.67
2022-08-07T15:22:29.519Z,2.22
2022-08-07T15:30:59.460Z,1.80
2022-08-07T15:36:57.481Z,1.88
2022-08-07T15:39:13.185Z,1.92
2022-08-07T15:42:46.002Z,2.00
2022-08-07T15:44:53.313Z,2.22
2022-08-07T15:48:00.466Z,1.92
2022-08-07T15:50:37.681Z,2.05
2022-08-07T15:53:52.106Z,2.00
2022-08-07T15:56:17.391Z,3.20
2022-08-07T15:58:52.316Z,1.92
2022-08-07T16:01:38.836Z,1.67
2022-08-07T16:04:14.929Z,1.90
2022-08-07T16:06:52.483Z,2.13
2022-08-07T16:09:42.218Z,2.05
2022-08-07T16:12:37.905Z,2.15
2022-08-07T16:15:56.375Z,2.08
2022-08-07T16:18:50.703Z,2.20
2022-08-07T16:22:02.651Z,2.17
2022-08-07T16:24:34.870Z,4.40
2022-08-07T16:27:18.330Z,7.65
2022-08-07T16:30:31.099Z,2.40
2022-08-07T16:34:01.373Z,2.85
2022-08-07T16:36:31.428Z,2.20
2022-08-07T16:39:33.542Z,2.38
2022-08-07T16:42:33.586Z,2.40
2022-08-07T16:45:24.604Z,2.40
2022-08-07T16:48:30.043Z,2.13
2022-08-07T16:51:54.318Z,2.28
2022-08-07T16:54:09.795Z,2.20
2022-08-07T16:56:48.936Z,2.20
2022-08-07T16:59:51.057Z,2.60
2022-08-07T17:02:51.073Z,2.40
2022-08-07T17:06:19.276Z,2.13
2022-08-07T17:09:13.904Z,2.30
2022-08-07T17:12:04.914Z,2.40
2022-08-07T17:14:53.724Z,2.85
2022-08-07T17:17:45.887Z,2.50
2022-08-07T17:20:37.704Z,2.33
2022-08-07T17:23:22.395Z,2.30
2022-08-07T17:26:03.686Z,2.40
2022-08-07T17:28:52.521Z,2.50
2022-08-07T17:31:44.178Z,2.60
2022-08-07T17:35:02.682Z,2.45
2022-08-07T17:38:07.233Z,2.50
2022-08-07T17:40:54.250Z,2.20
2022-08-07T17:44:03.209Z,2.58
2022-08-07T17:46:34.776Z,2.20
2022-08-07T17:49:27.975Z,2.15
2022-08-07T17:52:13.612Z,2.40
2022-08-07T17:54:54.315Z,2.47
2022-08-07T17:57:32.024Z,2.53
2022-08-07T18:00:33.150Z,2.17
2022-08-07T18:03:01.578Z,2.10
2022-08-07T18:06:02.256Z,2.25
2022-08-07T18:09:01.015Z,2.33
2022-08-07T18:12:16.506Z,2.30
2022-08-07T18:14:46.053Z,2.28
2022-08-07T18:18:46.657Z,2.42
2022-08-07T18:21:10.229Z,2.40
2022-08-07T18:23:57.229Z,2.50
2022-08-07T18:27:10.810Z,2.22
2022-08-07T18:30:05.929Z,2.43
2022-08-07T18:33:11.937Z,2.30
2022-08-07T18:35:57.432Z,2.40
2022-08-07T18:40:08.270Z,2.40
2022-08-07T18:42:13.005Z,2.95
2022-08-07T18:45:43.277Z,3.63
2022-08-07T18:48:10.170Z,3.10
2022-08-07T18:51:05.591Z,2.53
2022-08-07T18:53:54.377Z,2.60
2022-08-07T18:57:31.049Z,2.50
2022-08-07T19:00:33.070Z,2.53
2022-08-07T19:03:38.196Z,2.70
2022-08-07T19:06:16.310Z,2.45
2022-08-07T19:08:55.749Z,2.47
2022-08-07T19:11:37.571Z,2.22
2022-08-07T19:14:31.558Z,2.47
2022-08-07T19:17:07.724Z,2.88
2022-08-07T19:19:45.564Z,2.42
2022-08-07T19:22:31.124Z,2.65
2022-08-07T19:25:06.395Z,2.47
2022-08-07T19:28:30.796Z,2.40
2022-08-07T19:31:06.374Z,2.67
2022-08-07T19:33:18.878Z,2.47
2022-08-07T19:36:01.529Z,2.63
2022-08-07T19:38:30.468Z,2.40
2022-08-07T19:41:00.485Z,2.72
2022-08-07T19:43:48.913Z,2.83
2022-08-07T19:46:26.617Z,2.70
2022-08-07T19:49:57.866Z,2.90
2022-08-07T19:54:56.564Z,3.00
2022-08-07T19:58:03.260Z,2.63
2022-08-07T20:00:28.706Z,3.17
2022-08-07T20:03:02.682Z,2.85
2022-08-07T20:05:59.911Z,3.00
2022-08-07T20:08:30.120Z,2.92
2022-08-07T20:11:02.166Z,2.83
2022-08-07T20:13:43.424Z,3.35
2022-08-07T20:16:31.970Z,2.90
2022-08-07T20:19:04.610Z,3.10
2022-08-07T20:24:31.581Z,3.00
2022-08-07T20:27:07.498Z,3.08
2022-08-07T20:29:58.338Z,3.30
2022-08-07T20:32:39.819Z,2.97
2022-08-07T20:35:12.565Z,2.97
2022-08-07T20:37:59.283Z,3.08
2022-08-07T20:40:37.349Z,3.10
2022-08-07T20:43:16.981Z,3.10
2022-08-07T20:46:25.795Z,2.75
2022-08-07T20:49:55.245Z,3.20
2022-08-07T20:51:35.883Z,3.28
2022-08-07T20:54:09.450Z,3.30
2022-08-07T20:56:46.123Z,3.55
2022-08-07T21:00:05.541Z,3.17
2022-08-07T21:02:14.607Z,3.20
2022-08-07T21:04:54.557Z,3.28
2022-08-07T21:07:24.705Z,3.53
2022-08-07T21:09:59.212Z,3.53
2022-08-07T21:12:31.511Z,3.38
2022-08-07T21:15:03.198Z,3.03
2022-08-07T21:18:02.603Z,3.42
2022-08-07T21:20:30.447Z,3.30
2022-08-07T21:23:08.635Z,3.70
2022-08-07T21:25:58.537Z,3.22
2022-08-07T21:28:51.815Z,3.45
2022-08-07T21:31:31.332Z,3.22
2022-08-07T21:34:32.353Z,3.42
2022-08-07T21:37:02.445Z,3.60
2022-08-07T21:42:46.077Z,3.63
2022-08-07T21:46:09.580Z,3.55
2022-08-07T21:48:41.253Z,3.72
2022-08-07T21:51:27.075Z,3.67
2022-08-07T21:54:19.363Z,3.80
2022-08-07T21:57:15.930Z,3.50
2022-08-07T22:00:23.139Z,3.50
2022-08-07T22:03:30.807Z,3.75
2022-08-07T22:06:01.737Z,3.83
2022-08-07T22:08:37.477Z,3.58
2022-08-07T22:11:05.741Z,3.60
2022-08-07T22:13:52.898Z,3.70
2022-08-07T22:16:46.802Z,3.88
2022-08-07T22:19:27.074Z,3.70
2022-08-07T22:22:21.072Z,3.60
2022-08-07T22:25:08.525Z,4.07
2022-08-07T22:28:07.450Z,3.47
2022-08-07T22:30:53.072Z,3.67
2022-08-07T22:33:57.070Z,3.78
2022-08-07T22:36:47.528Z,3.70
2022-08-07T22:39:53.771Z,3.95
2022-08-07T22:42:26.233Z,3.60
2022-08-07T22:45:02.519Z,4.03
2022-08-07T22:48:54.549Z,3.72
2022-08-07T22:51:04.805Z,3.97
2022-08-07T22:54:09.296Z,3.37
2022-08-07T22:57:16.817Z,4.00
2022-08-07T23:00:03.962Z,4.03
2022-08-07T23:02:42.447Z,3.85
2022-08-07T23:06:07.587Z,3.63
2022-08-07T23:08:24.021Z,3.60
2022-08-07T23:11:26.453Z,3.53
2022-08-07T23:14:15.228Z,3.60
2022-08-07T23:17:02.542Z,3.70
2022-08-07T23:20:03.280Z,4.15
2022-08-07T23:22:47.034Z,4.07
2022-08-07T23:25:35.391Z,3.70
2022-08-07T23:28:20.366Z,3.30
2022-08-07T23:31:11.157Z,4.30
2022-08-07T23:34:35.553Z,3.83
2022-08-07T23:37:20.166Z,3.67
2022-08-07T23:40:19.554Z,3.85
2022-08-07T23:42:55.266Z,4.07
2022-08-07T23:46:03.610Z,3.95
2022-08-07T23:48:40.737Z,3.80
2022-08-07T23:53:01.818Z,3.50
2022-08-07T23:54:44.115Z,3.67
2022-08-07T23:57:25.261Z,3.78
